createdAt,value
2023-03-05T00:01:34.251Z,11.57
2023-03-05T00:04:03.506Z,10.23
2023-03-05T00:06:40.440Z,12.80
2023-03-05T00:09:08.871Z,11.27
2023-03-05T00:11:37.238Z,9.73
2023-03-05T00:14:07.203Z,10.63
2023-03-05T00:16:37.908Z,9.63
2023-03-05T00:19:10.077Z,10.50
2023-03-05T00:21:41.219Z,10.23
2023-03-05T00:24:12.509Z,9.90
2023-03-05T00:26:41.112Z,11.40
2023-03-05T00:29:10.631Z,9.73
2023-03-05T00:31:39.399Z,10.30
2023-03-05T00:34:09.534Z,11.20
2023-03-05T00:36:42.820Z,9.83
2023-03-05T00:39:11.391Z,9.70
2023-03-05T00:41:39.700Z,10.63
2023-03-05T00:44:08.098Z,11.50
2023-03-05T00:46:36.181Z,11.00
2023-03-05T00:49:04.808Z,9.70
2023-03-05T00:51:33.380Z,11.67
2023-03-05T00:54:02.799Z,10.20
2023-03-05T00:56:31.076Z,11.17
2023-03-05T00:58:59.199Z,10.60
2023-03-05T01:01:29.319Z,13.03
2023-03-05T01:03:58.128Z,9.93
2023-03-05T01:06:26.400Z,11.17
2023-03-05T01:08:54.406Z,10.07
2023-03-05T01:11:23.878Z,10.70
2023-03-05T01:13:51.806Z,10.73
2023-03-05T01:16:20.013Z,9.13
2023-03-05T01:18:48.002Z,10.10
2023-03-05T01:21:16.281Z,11.00
2023-03-05T01:23:44.361Z,10.57
2023-03-05T01:26:12.440Z,13.00
2023-03-05T01:28:42.061Z,12.20
2023-03-05T01:31:10.864Z,10.67
2023-03-05T01:33:38.939Z,11.90
2023-03-05T01:36:12.551Z,12.13
2023-03-05T01:38:40.776Z,11.27
2023-03-05T01:41:09.332Z,10.97
2023-03-05T01:43:37.552Z,10.60
2023-03-05T01:46:42.043Z,11.77
2023-03-05T01:49:19.477Z,10.77
2023-03-05T01:52:00.798Z,10.77
2023-03-05T06:22:54.101Z,8.93
2023-03-05T06:25:21.964Z,16.93
2023-03-05T06:27:51.992Z,10.30
2023-03-05T06:30:20.093Z,9.00
2023-03-05T07:16:41.337Z,8.50
2023-03-05T07:19:11.951Z,9.13
2023-03-05T07:21:40.223Z,9.63
2023-03-05T07:24:08.992Z,10.00
2023-03-05T07:26:37.196Z,9.40
2023-03-05T07:29:05.532Z,10.57
2023-03-05T07:31:33.424Z,10.77
2023-03-05T07:34:03.703Z,10.77
2023-03-05T07:36:33.911Z,10.03
2023-03-05T07:39:02.237Z,11.40
2023-03-05T07:41:30.163Z,10.87
2023-03-05T07:43:58.002Z,12.53
2023-03-05T07:46:28.572Z,12.43
2023-03-05T07:49:06.757Z,12.70
2023-03-05T07:51:34.711Z,11.20
2023-03-05T07:54:02.900Z,12.27
2023-03-05T08:06:14.623Z,14.17
2023-03-05T08:08:42.831Z,13.13
2023-03-05T08:11:12.744Z,13.10
2023-03-05T08:13:41.266Z,12.17
2023-03-05T08:16:12.281Z,14.57
2023-03-05T08:18:40.302Z,13.90
2023-03-05T08:21:08.247Z,11.60
2023-03-05T08:23:37.440Z,13.90
2023-03-05T08:26:13.535Z,13.60
2023-03-05T08:28:41.461Z,13.40
2023-03-05T08:31:13.291Z,12.60
2023-03-05T08:33:41.533Z,14.20
2023-03-05T08:36:10.027Z,13.37
2023-03-05T08:38:39.191Z,13.90
2023-03-05T08:41:08.766Z,13.00
2023-03-05T08:43:36.667Z,13.23
2023-03-05T08:46:05.133Z,11.40
2023-03-05T08:48:34.467Z,12.20
2023-03-05T08:51:06.778Z,12.57
2023-03-05T08:53:34.786Z,12.20
2023-03-05T08:56:04.612Z,10.53
2023-03-05T08:58:32.996Z,12.50
2023-03-05T09:01:01.186Z,13.07
2023-03-05T09:03:29.318Z,11.70
2023-03-05T09:06:01.009Z,14.30
2023-03-05T09:08:29.289Z,12.20
2023-03-05T09:10:57.296Z,11.37
2023-03-05T09:13:26.610Z,12.00
2023-03-05T09:15:58.145Z,12.27
2023-03-05T09:18:26.150Z,13.70
2023-03-05T09:20:54.302Z,12.07
2023-03-05T09:23:22.503Z,12.40
2023-03-05T09:25:50.428Z,11.60
2023-03-05T09:28:18.375Z,12.23
2023-03-05T09:30:47.691Z,12.20
2023-03-05T09:33:15.750Z,14.20
2023-03-05T09:35:43.928Z,14.30
2023-03-05T09:38:11.775Z,13.50
2023-03-05T09:40:46.682Z,13.40
2023-03-05T09:43:26.789Z,13.03
2023-03-05T09:46:14.509Z,12.83
2023-03-05T09:48:51.754Z,13.93
2023-03-05T09:51:27.420Z,14.57
2023-03-05T09:54:03.023Z,17.20
2023-03-05T09:56:34.205Z,16.30
2023-03-05T09:59:08.923Z,15.57
2023-03-05T10:01:42.114Z,15.47
2023-03-05T10:04:13.648Z,14.73
2023-03-05T10:06:49.712Z,15.23
2023-03-05T10:09:28.194Z,15.93
2023-03-05T10:11:58.528Z,16.33
2023-03-05T10:14:28.883Z,14.97
2023-03-05T10:17:23.525Z,17.80
2023-03-05T10:20:18.404Z,19.07
2023-03-05T10:23:05.517Z,16.40
2023-03-05T10:25:49.652Z,18.70
2023-03-05T10:28:22.645Z,17.03
2023-03-05T10:31:05.846Z,18.63
2023-03-05T10:33:44.124Z,15.90
2023-03-05T10:36:41.556Z,16.80
2023-03-05T10:39:43.325Z,17.90
2023-03-05T10:42:21.147Z,16.27
2023-03-05T10:44:53.816Z,16.53
2023-03-05T10:47:26.287Z,17.97
2023-03-05T10:49:58.737Z,18.90
2023-03-05T10:52:32.708Z,18.50
2023-03-05T10:55:00.662Z,16.93
2023-03-05T10:57:31.658Z,17.03
2023-03-05T11:00:58.576Z,17.70
2023-03-05T11:03:22.900Z,17.27
2023-03-05T11:34:54.805Z,15.53
2023-03-05T11:52:17.885Z,15.57
2023-03-05T11:55:00.229Z,15.73
2023-03-05T11:57:30.015Z,16.00
2023-03-05T12:00:00.136Z,13.67
2023-03-05T12:02:29.234Z,16.50
2023-03-05T12:04:59.520Z,15.40
2023-03-05T12:07:35.292Z,14.90
2023-03-05T12:10:04.133Z,14.40
2023-03-05T12:12:42.159Z,14.97
2023-03-05T12:15:34.875Z,14.80
2023-03-05T12:18:13.636Z,15.93
2023-03-05T12:20:49.477Z,16.00
2023-03-05T12:23:20.203Z,13.17
2023-03-05T12:25:50.426Z,14.77
2023-03-05T12:28:38.563Z,14.73
2023-03-05T12:31:07.271Z,14.63
2023-03-05T12:33:38.156Z,15.47
2023-03-05T12:36:36.431Z,16.57
2023-03-05T12:39:50.806Z,16.83
2023-03-05T12:42:44.998Z,15.27
2023-03-05T12:45:30.020Z,17.73
2023-03-05T12:48:42.751Z,17.00
2023-03-05T12:51:31.012Z,15.93
2023-03-05T12:54:39.906Z,13.60
2023-03-05T12:57:21.300Z,13.30
2023-03-05T12:59:54.474Z,14.73
2023-03-05T13:02:29.604Z,16.30
2023-03-05T13:05:01.669Z,14.00
2023-03-05T13:07:29.643Z,13.80
2023-03-05T13:10:00.257Z,12.87
2023-03-05T13:12:30.505Z,13.40
2023-03-05T13:15:04.245Z,14.67
2023-03-05T13:17:39.146Z,16.20
2023-03-05T13:20:26.828Z,15.57
2023-03-05T13:23:15.011Z,13.80
2023-03-05T13:25:44.470Z,14.20
2023-03-05T13:28:14.740Z,12.70
2023-03-05T13:30:46.771Z,15.40
2023-03-05T13:33:19.644Z,14.27
2023-03-05T13:35:48.490Z,14.40
2023-03-05T13:38:24.474Z,14.13
2023-03-05T13:41:18.107Z,14.77
2023-03-05T13:43:47.521Z,15.37
2023-03-05T13:46:23.788Z,16.43
2023-03-05T13:48:51.733Z,15.07
2023-03-05T13:51:19.972Z,15.23
2023-03-05T13:53:48.378Z,15.60
2023-03-05T14:23:41.024Z,13.80
2023-03-05T14:26:35.488Z,14.30
2023-03-05T14:29:39.815Z,16.00
2023-03-05T14:36:29.836Z,15.97
2023-03-05T14:43:17.009Z,15.07
2023-03-05T15:15:22.005Z,14.50
2023-03-05T15:18:06.359Z,14.67
2023-03-05T15:46:20.931Z,17.60
2023-03-05T15:49:09.125Z,15.73
2023-03-05T15:54:48.594Z,16.83
2023-03-05T15:57:16.581Z,12.87
2023-03-05T15:59:44.456Z,14.27
2023-03-05T16:02:13.725Z,15.90
2023-03-05T16:04:41.640Z,13.73
2023-03-05T16:07:12.809Z,14.47
2023-03-05T16:09:49.085Z,15.70
2023-03-05T16:12:25.362Z,14.57
2023-03-05T16:14:53.450Z,14.60
2023-03-05T16:17:25.226Z,14.23
2023-03-05T16:19:58.600Z,16.10
2023-03-05T16:22:26.485Z,14.97
2023-03-05T16:24:54.340Z,16.73
2023-03-05T16:27:24.345Z,14.30
2023-03-05T16:29:53.891Z,15.93
2023-03-05T16:32:25.617Z,14.67
2023-03-05T16:34:53.566Z,14.37
2023-03-05T16:37:22.679Z,16.37
2023-03-05T16:39:53.672Z,16.50
2023-03-05T16:42:24.767Z,16.73
2023-03-05T16:44:52.721Z,15.00
2023-03-05T16:47:22.020Z,14.67
2023-03-05T16:49:49.948Z,14.27
2023-03-05T16:52:19.772Z,13.37
2023-03-05T16:54:49.297Z,14.33
2023-03-05T16:57:17.408Z,13.70
2023-03-05T16:59:45.456Z,15.50
2023-03-05T17:02:15.205Z,15.50
2023-03-05T17:04:45.181Z,15.47
2023-03-05T17:07:13.291Z,14.00
2023-03-05T17:09:41.590Z,12.73
2023-03-05T17:12:09.770Z,15.77
2023-03-05T17:14:37.819Z,11.10
2023-03-05T17:17:05.804Z,11.00
2023-03-05T17:19:33.793Z,11.10
2023-03-05T17:22:03.402Z,11.93
2023-03-05T17:24:32.925Z,10.27
2023-03-05T17:27:02.961Z,12.60
2023-03-05T17:29:31.330Z,10.70
2023-03-05T17:32:02.571Z,11.97
2023-03-05T17:34:36.781Z,11.50
2023-03-05T17:37:06.751Z,10.00
2023-03-05T17:39:35.093Z,20.20
2023-03-05T17:42:03.292Z,12.37
2023-03-05T17:44:34.468Z,12.43
2023-03-05T17:47:02.616Z,12.33
2023-03-05T17:49:31.064Z,12.33
2023-03-05T17:51:58.996Z,10.97
2023-03-05T17:54:28.236Z,10.60
2023-03-05T17:56:58.740Z,12.10
2023-03-05T17:59:26.992Z,11.27
2023-03-05T18:01:55.066Z,14.30
2023-03-05T18:04:22.996Z,20.37
2023-03-05T18:06:50.887Z,14.07
2023-03-05T18:09:18.770Z,16.10
2023-03-05T18:11:48.946Z,31.87
2023-03-05T18:14:17.227Z,13.43
2023-03-05T18:16:45.413Z,17.50
2023-03-05T18:19:13.331Z,12.47
2023-03-05T18:21:42.000Z,13.07
2023-03-05T18:24:10.195Z,13.60
2023-03-05T18:26:39.217Z,12.00
2023-03-05T18:29:08.525Z,12.97
2023-03-05T18:31:36.374Z,11.67
2023-03-05T18:34:04.248Z,13.20
2023-03-05T18:36:32.163Z,14.10
2023-03-05T18:39:01.211Z,9.70
2023-03-05T18:43:00.512Z,10.30
2023-03-05T18:45:34.333Z,9.40
2023-03-05T18:48:08.645Z,12.40
2023-03-05T18:50:36.629Z,12.23
2023-03-05T18:53:04.607Z,12.03
2023-03-05T18:55:32.614Z,13.17
2023-03-05T18:58:00.510Z,12.50
2023-03-05T19:00:32.069Z,11.20
2023-03-05T19:03:00.660Z,11.20
2023-03-05T19:05:29.311Z,11.43
2023-03-05T19:07:57.424Z,11.40
2023-03-05T19:10:26.394Z,9.67
2023-03-05T19:13:40.740Z,11.00
2023-03-05T19:16:12.831Z,10.17
2023-03-05T19:19:16.555Z,10.97
2023-03-05T19:21:46.221Z,9.57
2023-03-05T19:24:14.689Z,10.77
2023-03-05T19:26:44.201Z,10.83
2023-03-05T19:29:13.114Z,9.40
2023-03-05T19:31:42.901Z,8.77
2023-03-05T19:34:11.740Z,10.80
2023-03-05T19:36:39.684Z,10.63
2023-03-05T19:39:09.059Z,8.77
2023-03-05T19:41:41.921Z,9.67
